Time;durP1;ratioP1;P1;durP2;ratioP2;P2;SDS_P1;SDS_P2;PMS_P1;PMS_P2;Temp;Humidity;BMP_temperature;BMP_pressure;BME280_temperature;BME280_humidity;BME280_pressure;Samples;Min_cycle;Max_cycle;Signal;HPM_P1;HPM_P2
2021/07/02 00:00:17;;;;;;;2.10;1.23;;;;;;;19.22;64.43;99350.84;5132990;27;20361;-69
2021/07/02 00:03:00;;;;;;;1.65;0.90;;;;;;;19.10;64.74;99351.38;5132981;27;20374;-69
2021/07/02 00:05:41;;;;;;;2.25;1.10;;;;;;;19.08;65.21;99358.34;5132677;27;20386;-69
2021/07/02 00:08:25;;;;;;;1.70;1.10;;;;;;;19.14;65.27;99360.69;5144876;27;1436902;-69
2021/07/02 00:11:07;;;;;;;1.85;1.10;;;;;;;19.23;64.81;99357.72;5132974;27;20413;-69
2021/07/02 00:13:48;;;;;;;1.77;1.00;;;;;;;19.22;64.94;99354.28;5132968;27;20376;-69
2021/07/02 00:16:33;;;;;;;1.73;1.10;;;;;;;19.23;65.09;99352.56;5132493;27;20379;-69
2021/07/02 00:19:14;;;;;;;3.03;1.30;;;;;;;19.08;65.41;99348.00;5132981;27;20359;-69
2021/07/02 00:21:56;;;;;;;3.67;1.30;;;;;;;18.95;65.99;99341.66;5133036;27;20376;-69
2021/07/02 00:24:39;;;;;;;3.00;1.50;;;;;;;18.91;66.33;99345.28;5132991;27;20374;-70
2021/07/02 00:27:20;;;;;;;3.65;1.42;;;;;;;18.92;66.39;99342.59;5132242;27;20384;-69
2021/07/02 00:30:01;;;;;;;3.03;1.52;;;;;;;18.99;66.18;99338.03;5133021;27;20371;-70
2021/07/02 00:32:45;;;;;;;1.75;1.10;;;;;;;19.06;65.81;99340.31;5153708;27;20881;-69
2021/07/02 00:35:26;;;;;;;2.00;1.23;;;;;;;19.04;65.86;99336.09;5133013;27;20414;-69
2021/07/02 00:38:07;;;;;;;3.08;1.25;;;;;;;19.01;65.92;99326.72;5133005;27;20686;-69
2021/07/02 00:40:49;;;;;;;1.98;1.15;;;;;;;19.01;66.05;99325.88;5133051;27;20379;-70
2021/07/02 00:43:30;;;;;;;2.35;1.25;;;;;;;18.97;66.01;99319.16;5133054;27;20368;-69
2021/07/02 00:46:10;;;;;;;4.65;1.20;;;;;;;19.06;66.01;99329.13;5145341;27;1425531;-70
2021/07/02 00:48:51;;;;;;;2.58;1.20;;;;;;;19.01;65.95;99329.31;5132976;27;20421;-70
2021/07/02 00:51:33;;;;;;;2.83;1.35;;;;;;;18.97;66.18;99329.50;5132451;27;20364;-69
2021/07/02 00:54:15;;;;;;;2.40;1.20;;;;;;;18.90;66.37;99325.47;5133006;27;20368;-70
2021/07/02 00:56:57;;;;;;;3.65;1.30;;;;;;;18.86;66.42;99331.69;5133025;27;20364;-70
2021/07/02 00:59:41;;;;;;;2.92;1.40;;;;;;;18.88;66.53;99329.88;5133055;27;20375;-69
2021/07/02 01:02:24;;;;;;;2.63;1.50;;;;;;;18.77;66.82;99329.44;5132159;27;20376;-69
2021/07/02 01:05:07;;;;;;;4.07;1.38;;;;;;;18.68;67.17;99333.22;5133050;27;20363;-69
2021/07/02 01:07:51;;;;;;;2.25;1.38;;;;;;;18.64;67.44;99342.84;5112470;27;20381;-69
2021/07/02 01:10:32;;;;;;;2.17;1.20;;;;;;;18.58;67.65;99350.84;5132935;27;20363;-70
2021/07/02 01:13:14;;;;;;;2.08;1.20;;;;;;;18.54;68.00;99340.69;5132079;27;20371;-70
2021/07/02 01:15:57;;;;;;;2.22;1.20;;;;;;;18.51;68.22;99341.66;5132991;27;20375;-69
2021/07/02 01:18:40;;;;;;;2.42;1.05;;;;;;;18.48;68.25;99336.59;5133025;27;20372;-70
2021/07/02 01:21:25;;;;;;;2.17;1.20;;;;;;;18.36;68.53;99337.00;5132574;27;20383;-70
2021/07/02 01:24:07;;;;;;;1.65;1.00;;;;;;;18.28;68.89;99344.22;5132966;27;20367;-70
2021/07/02 01:26:49;;;;;;;1.30;1.10;;;;;;;18.29;69.08;99329.53;5133021;27;20378;-70
2021/07/02 01:29:30;;;;;;;1.75;1.20;;;;;;;18.27;68.99;99327.03;5133204;27;20372;-70
2021/07/02 01:32:12;;;;;;;2.00;1.17;;;;;;;18.16;69.20;99313.69;5132531;27;20367;-69
2021/07/02 01:34:54;;;;;;;2.20;1.30;;;;;;;18.02;69.35;99327.09;5133046;27;20367;-69
2021/07/02 01:37:37;;;;;;;1.95;1.15;;;;;;;17.84;70.04;99316.59;5132973;27;20375;-70
2021/07/02 01:40:19;;;;;;;2.90;1.30;;;;;;;17.82;70.37;99318.38;5145217;27;1429588;-69
2021/07/02 01:43:05;;;;;;;1.95;1.10;;;;;;;17.83;70.60;99309.72;5132197;27;20364;-70
2021/07/02 01:45:51;;;;;;;2.65;1.20;;;;;;;17.88;70.58;99302.66;5132985;27;20368;-69
2021/07/02 01:48:35;;;;;;;3.15;1.20;;;;;;;17.84;70.34;99301.09;5133035;27;20363;-70
2021/07/02 01:51:16;;;;;;;2.03;1.10;;;;;;;17.76;70.70;99303.09;5145407;27;1423596;-70
2021/07/02 01:54:00;;;;;;;1.65;1.20;;;;;;;17.59;70.90;99310.63;5132309;27;20376;-69
2021/07/02 01:56:47;;;;;;;2.20;1.23;;;;;;;17.58;71.15;99314.09;5132998;27;20367;-69
2021/07/02 01:59:32;;;;;;;2.28;1.20;;;;;;;17.56;71.27;99315.88;5133161;27;20380;-70
2021/07/02 02:02:17;;;;;;;2.33;1.45;;;;;;;17.58;71.06;99319.25;5133001;27;20372;-70
2021/07/02 02:05:04;;;;;;;2.60;1.27;;;;;;;17.64;70.98;99319.88;5132973;27;20378;-70
2021/07/02 02:07:46;;;;;;;2.38;1.30;;;;;;;17.49;71.09;99309.22;5132257;27;20375;-70
2021/07/02 02:10:29;;;;;;;2.60;1.10;;;;;;;17.47;71.90;99316.19;5133002;27;20829;-70
2021/07/02 02:13:14;;;;;;;4.60;1.40;;;;;;;17.48;71.73;99312.69;5132997;27;20367;-69
2021/07/02 02:15:58;;;;;;;2.53;1.40;;;;;;;17.40;72.11;99325.84;5132856;27;20713;-69
2021/07/02 02:18:41;;;;;;;3.10;1.30;;;;;;;17.36;72.39;99325.13;5133020;27;20368;-70
2021/07/02 02:21:23;;;;;;;1.85;1.20;;;;;;;17.28;72.60;99321.94;5133004;27;20446;-70
2021/07/02 02:24:05;;;;;;;1.48;1.00;;;;;;;17.32;72.87;99313.19;5133007;27;20363;-70
2021/07/02 02:26:47;;;;;;;1.98;1.10;;;;;;;17.38;72.92;99313.00;5132777;27;20366;-70
2021/07/02 02:29:29;;;;;;;2.33;1.20;;;;;;;17.36;72.76;99317.38;5132971;27;20378;-69
2021/07/02 02:32:11;;;;;;;2.15;1.27;;;;;;;17.30;72.76;99299.50;5132945;27;20359;-70
2021/07/02 02:34:53;;;;;;;2.58;1.38;;;;;;;17.37;72.70;99306.16;5132951;27;20879;-70
2021/07/02 02:37:35;;;;;;;2.67;1.30;;;;;;;17.23;72.52;99299.78;5145178;27;1423254;-69
2021/07/02 02:40:18;;;;;;;3.28;1.67;;;;;;;17.23;73.05;99313.50;5133017;27;20887;-69
2021/07/02 02:42:59;;;;;;;2.42;1.30;;;;;;;17.28;72.98;99306.47;5145234;27;1427267;-70
2021/07/02 02:45:42;;;;;;;3.33;1.40;;;;;;;17.14;73.07;99308.66;5133207;27;20356;-70
2021/07/02 02:48:25;;;;;;;2.83;1.40;;;;;;;17.15;73.13;99310.38;5132346;27;20390;-70
2021/07/02 02:51:06;;;;;;;2.00;1.20;;;;;;;17.07;73.00;99307.19;5132989;27;20368;-70
2021/07/02 02:53:49;;;;;;;3.20;1.55;;;;;;;17.20;73.28;99307.63;5132984;27;20378;-70
2021/07/02 02:56:30;;;;;;;3.15;1.60;;;;;;;17.33;72.61;99309.75;5132959;27;20859;-70
2021/07/02 02:59:15;;;;;;;3.22;1.25;;;;;;;17.42;72.39;99312.00;5132228;27;20372;-69
2021/07/02 03:01:57;;;;;;;2.55;1.27;;;;;;;17.39;72.44;99309.53;5132935;27;20356;-69
2021/07/02 03:04:39;;;;;;;2.17;1.23;;;;;;;17.34;72.35;99306.28;5132987;27;20814;-70
2021/07/02 03:07:21;;;;;;;3.42;1.50;;;;;;;17.20;72.35;99312.78;5132889;27;20363;-69
2021/07/02 03:10:02;;;;;;;4.07;1.67;;;;;;;17.09;72.79;99309.72;5132999;27;20372;-70
2021/07/02 03:12:45;;;;;;;2.35;1.40;;;;;;;16.97;73.45;99316.13;5133015;27;20693;-70
2021/07/02 03:15:29;;;;;;;3.63;1.50;;;;;;;16.97;73.31;99316.13;5133240;27;20368;-69
2021/07/02 03:18:13;;;;;;;2.47;1.45;;;;;;;16.96;73.65;99309.28;5132726;27;20386;-69
2021/07/02 03:20:56;;;;;;;2.63;1.50;;;;;;;17.04;73.73;99320.19;5132969;27;20363;-70
2021/07/02 03:23:37;;;;;;;3.58;1.35;;;;;;;17.19;73.62;99317.09;5132927;27;20371;-70
2021/07/02 03:26:19;;;;;;;2.00;1.25;;;;;;;17.29;73.69;99317.63;5145164;27;1430675;-70
2021/07/02 03:29:03;;;;;;;2.70;1.17;;;;;;;17.33;73.37;99309.75;5132424;27;20379;-70
2021/07/02 03:31:45;;;;;;;3.13;1.50;;;;;;;17.45;73.30;99313.63;5132840;27;20356;-70
2021/07/02 03:34:28;;;;;;;2.97;1.60;;;;;;;17.46;73.14;99309.31;5132992;27;20364;-70
2021/07/02 03:37:09;;;;;;;2.60;1.50;;;;;;;17.48;73.34;99312.69;5132749;27;20394;-69
2021/07/02 03:39:52;;;;;;;2.85;1.50;;;;;;;17.49;72.97;99319.53;5132171;27;20379;-69
2021/07/02 03:42:34;;;;;;;2.50;1.40;;;;;;;17.56;73.07;99313.31;5133012;27;20378;-70
2021/07/02 03:45:15;;;;;;;2.47;1.40;;;;;;;17.59;72.67;99313.22;5159490;27;1429941;-70
2021/07/02 03:47:58;;;;;;;2.30;1.48;;;;;;;17.54;72.69;99309.94;5132953;27;20382;-70
2021/07/02 03:50:41;;;;;;;2.90;1.50;;;;;;;17.38;72.90;99323.31;5132466;27;20368;-69
2021/07/02 03:53:24;;;;;;;3.50;1.80;;;;;;;17.31;73.56;99315.84;5133021;27;20359;-70
2021/07/02 03:56:07;;;;;;;3.38;1.67;;;;;;;17.29;73.68;99318.50;5133008;27;20363;-70
2021/07/02 03:58:48;;;;;;;2.50;1.60;;;;;;;17.36;73.53;99325.13;5132869;27;20370;-70
2021/07/02 04:01:30;;;;;;;3.42;1.67;;;;;;;17.34;73.62;99326.91;5132879;27;20344;-69
2021/07/02 04:04:11;;;;;;;2.90;1.65;;;;;;;17.15;74.04;99336.16;5133247;27;20372;-70
2021/07/02 04:06:52;;;;;;;3.25;1.52;;;;;;;16.93;74.07;99332.59;5132471;27;20382;-70
2021/07/02 04:09:34;;;;;;;3.03;1.60;;;;;;;16.85;75.15;99337.13;5132688;27;20375;-70
2021/07/02 04:12:15;;;;;;;2.70;1.45;;;;;;;16.99;75.00;99342.69;5132991;27;20366;-70
2021/07/02 04:14:57;;;;;;;2.70;1.70;;;;;;;17.01;75.08;99343.47;5132981;27;20368;-70
2021/07/02 04:17:38;;;;;;;2.63;1.80;;;;;;;16.94;75.09;99346.31;5132902;27;20363;-70
2021/07/02 04:20:21;;;;;;;4.15;1.75;;;;;;;16.84;75.36;99340.63;5132442;27;20433;-69
2021/07/02 04:23:02;;;;;;;3.35;1.80;;;;;;;16.90;75.92;99345.56;5133016;27;20363;-70
2021/07/02 04:25:44;;;;;;;4.30;1.60;;;;;;;17.01;75.51;99338.31;5132978;27;20379;-70
2021/07/02 04:28:25;;;;;;;3.00;1.67;;;;;;;17.16;75.72;99340.41;5132504;27;20348;-70
2021/07/02 04:31:07;;;;;;;3.53;1.92;;;;;;;17.31;75.25;99342.50;5132338;27;20726;-70
2021/07/02 04:33:48;;;;;;;3.33;1.90;;;;;;;17.34;74.98;99342.41;5133002;27;20407;-70
2021/07/02 04:36:29;;;;;;;3.85;1.80;;;;;;;17.46;74.88;99345.44;5132945;27;20364;-70
2021/07/02 04:39:11;;;;;;;3.78;1.88;;;;;;;17.66;74.77;99353.38;5133006;27;20416;-70
2021/07/02 04:41:52;;;;;;;4.22;1.90;;;;;;;17.73;74.37;99344.53;5132209;27;20379;-70
2021/07/02 04:44:34;;;;;;;2.90;1.77;;;;;;;17.65;73.78;99352.53;5147127;27;1427940;-70
2021/07/02 04:47:15;;;;;;;3.58;1.77;;;;;;;17.73;74.14;99347.13;5132938;27;20822;-70
2021/07/02 04:49:56;;;;;;;3.03;1.90;;;;;;;17.51;74.19;99341.81;5133016;27;20686;-69
2021/07/02 04:52:38;;;;;;;3.85;1.90;;;;;;;17.73;74.02;99349.69;5132920;27;20364;-70
2021/07/02 04:55:18;;;;;;;2.83;1.70;;;;;;;17.86;74.02;99345.78;5144979;27;1434543;-70
2021/07/02 04:57:59;;;;;;;2.78;1.88;;;;;;;17.96;73.66;99342.81;5132916;27;20725;-70
2021/07/02 05:00:40;;;;;;;3.45;1.85;;;;;;;18.04;73.68;99345.94;5132952;27;20406;-70
2021/07/02 05:03:22;;;;;;;5.07;1.88;;;;;;;18.24;73.74;99342.63;5133048;27;20372;-70
2021/07/02 05:06:04;;;;;;;6.07;2.15;;;;;;;18.45;73.20;99341.81;5132341;27;20359;-70
2021/07/02 05:08:46;;;;;;;3.78;1.88;;;;;;;18.49;72.35;99343.44;5133034;27;20360;-70
2021/07/02 05:11:28;;;;;;;6.63;1.90;;;;;;;18.63;71.85;99341.16;5092082;27;20437;-69
2021/07/02 05:14:10;;;;;;;5.60;2.10;;;;;;;18.69;70.86;99340.91;5133084;27;20352;-69
2021/07/02 05:16:50;;;;;;;5.53;2.40;;;;;;;18.83;70.65;99342.97;5132239;27;20371;-69
2021/07/02 05:19:32;;;;;;;3.97;2.28;;;;;;;19.12;70.23;99347.81;5132931;27;20817;-69
2021/07/02 05:22:16;;;;;;;4.95;2.17;;;;;;;19.30;69.77;99344.47;5132933;27;20832;-69
2021/07/02 05:24:56;;;;;;;3.03;1.70;;;;;;;19.43;69.05;99346.59;5144049;27;1460587;-70
2021/07/02 05:27:38;;;;;;;3.08;1.77;;;;;;;19.49;68.33;99347.16;5133014;27;20379;-69
2021/07/02 05:30:22;;;;;;;4.00;2.10;;;;;;;19.81;67.68;99341.47;5133246;27;20867;-69
2021/07/02 05:33:04;;;;;;;3.25;2.08;;;;;;;20.09;66.78;99330.72;5132998;27;20352;-69
2021/07/02 05:35:45;;;;;;;2.90;1.88;;;;;;;20.30;65.85;99339.31;5132829;27;20368;-69
2021/07/02 05:38:27;;;;;;;3.78;1.90;;;;;;;20.51;65.00;99338.31;5132015;27;20387;-69
2021/07/02 05:41:08;;;;;;;5.57;2.50;;;;;;;20.66;64.21;99343.63;5131898;27;20380;-70
2021/07/02 05:43:49;;;;;;;7.38;2.38;;;;;;;20.84;63.45;99352.28;5145273;27;1422282;-70
2021/07/02 05:46:31;;;;;;;3.97;1.70;;;;;;;20.99;62.51;99346.38;5132237;27;20367;-69
2021/07/02 05:49:13;;;;;;;4.38;2.05;;;;;;;21.12;62.34;99351.81;5133016;27;20364;-69
2021/07/02 05:51:55;;;;;;;3.95;1.90;;;;;;;20.91;61.77;99345.91;5132069;27;20364;-69
2021/07/02 05:54:36;;;;;;;3.22;2.10;;;;;;;20.98;61.78;99355.06;5132809;27;20867;-69
2021/07/02 05:57:18;;;;;;;4.10;2.00;;;;;;;21.14;61.74;99356.03;5132960;27;20368;-69
2021/07/02 05:59:59;;;;;;;3.50;1.90;;;;;;;21.32;61.54;99349.09;5132987;27;20378;-70
2021/07/02 06:02:41;;;;;;;3.00;1.85;;;;;;;20.98;61.73;99355.06;5132889;27;20886;-69
2021/07/02 06:05:34;;;;;;;3.53;2.05;;;;;;;21.07;62.13;99359.84;5145560;27;1408691;-69
2021/07/02 06:08:16;;;;;;;2.83;2.00;;;;;;;21.20;61.85;99354.91;5132210;27;20363;-69
2021/07/02 06:10:59;;;;;;;3.25;1.92;;;;;;;21.55;61.24;99358.31;5132144;27;20364;-69
2021/07/02 06:13:41;;;;;;;4.30;2.20;;;;;;;21.58;60.48;99363.38;5132606;27;20359;-69
2021/07/02 06:16:22;;;;;;;3.88;1.95;;;;;;;21.40;60.38;99361.69;5132870;27;20379;-70
2021/07/02 06:19:04;;;;;;;4.28;2.15;;;;;;;21.24;60.63;99366.78;5132432;27;20403;-69
2021/07/02 06:21:45;;;;;;;4.60;2.40;;;;;;;21.03;61.29;99368.66;5132985;27;20368;-70
2021/07/02 06:24:27;;;;;;;3.35;1.88;;;;;;;21.15;60.92;99368.09;5132155;27;20374;-69
2021/07/02 06:27:08;;;;;;;3.90;1.85;;;;;;;21.32;60.17;99369.88;5132460;27;20879;-69
2021/07/02 06:29:50;;;;;;;4.18;2.38;;;;;;;21.55;59.83;99371.31;5132943;27;20675;-69
2021/07/02 06:32:30;;;;;;;4.57;2.17;;;;;;;21.89;58.90;99366.09;5141418;27;1530048;-69
2021/07/02 06:35:12;;;;;;;4.82;1.80;;;;;;;22.33;58.06;99372.44;5132574;27;20378;-69
2021/07/02 06:37:54;;;;;;;3.47;1.80;;;;;;;22.84;57.13;99368.78;5132270;27;20375;-70
2021/07/02 06:40:34;;;;;;;3.70;2.13;;;;;;;23.25;56.75;99369.06;5143703;27;1463855;-70
2021/07/02 06:43:13;;;;;;;3.65;1.70;;;;;;;23.60;56.21;99370.47;5141335;27;1532765;-69
2021/07/02 06:45:55;;;;;;;2.80;1.70;;;;;;;23.78;55.00;99369.38;5132368;27;20868;-70
2021/07/02 06:48:36;;;;;;;2.83;1.80;;;;;;;23.72;55.17;99367.16;5131932;27;20375;-69
2021/07/02 06:51:16;;;;;;;2.95;1.90;;;;;;;23.99;54.72;99362.88;5143770;27;1465931;-69
2021/07/02 06:54:01;;;;;;;4.43;2.15;;;;;;;24.19;53.85;99361.69;5131938;27;20368;-69
2021/07/02 06:57:00;;;;;;;3.78;2.30;;;;;;;23.72;53.62;99359.31;5132023;27;20372;-70
2021/07/02 06:59:43;;;;;;;3.40;2.17;;;;;;;23.34;53.95;99360.69;5132037;27;20394;-69
2021/07/02 07:02:24;;;;;;;3.60;2.30;;;;;;;23.06;54.64;99363.22;5131889;27;20376;-69
2021/07/02 07:05:07;;;;;;;3.42;1.83;;;;;;;23.02;54.86;99362.53;5131941;27;20367;-69
2021/07/02 07:07:48;;;;;;;3.33;2.05;;;;;;;23.07;54.53;99349.25;5132647;27;20379;-70
2021/07/02 07:10:31;;;;;;;3.22;2.10;;;;;;;23.03;54.67;99359.03;5131776;27;20356;-69
2021/07/02 07:13:13;;;;;;;3.83;2.20;;;;;;;22.96;55.06;99362.03;5132137;27;20376;-69
2021/07/02 07:15:59;;;;;;;8.73;2.38;;;;;;;23.04;56.02;99355.47;5132345;27;20868;-69
2021/07/02 07:18:40;;;;;;;3.83;2.30;;;;;;;23.07;55.14;99357.06;5131958;27;20375;-69
2021/07/02 07:21:23;;;;;;;3.90;2.33;;;;;;;23.07;55.37;99359.66;5132581;27;20841;-71
2021/07/02 07:24:05;;;;;;;3.42;2.13;;;;;;;23.02;55.81;99356.47;5132296;27;20382;-70
2021/07/02 07:26:46;;;;;;;4.45;2.50;;;;;;;22.96;56.47;99356.84;5132561;27;20372;-69
2021/07/02 07:29:27;;;;;;;4.13;2.10;;;;;;;23.36;55.70;99351.06;5133003;27;20375;-69
2021/07/02 07:32:25;;;;;;;3.80;2.10;;;;;;;23.50;55.41;99348.47;5131496;27;20371;-69
2021/07/02 07:35:35;;;;;;;3.78;2.22;;;;;;;23.62;54.48;99350.38;5122248;27;1430861;-69
2021/07/02 07:38:17;;;;;;;4.05;2.40;;;;;;;23.73;54.92;99350.56;5132107;27;20360;-70
2021/07/02 07:40:59;;;;;;;4.47;2.30;;;;;;;23.65;55.09;99362.38;5131974;27;20757;-70
2021/07/02 07:43:41;;;;;;;3.30;1.85;;;;;;;23.74;54.72;99359.22;5152700;27;20386;-69
2021/07/02 07:46:24;;;;;;;3.55;2.00;;;;;;;23.32;55.01;99355.56;5132188;27;20375;-69
2021/07/02 07:49:05;;;;;;;3.15;1.90;;;;;;;22.93;55.92;99357.00;5131978;27;20761;-69
2021/07/02 07:51:49;;;;;;;6.28;2.10;;;;;;;22.58;56.55;99357.16;5132043;27;20370;-69
2021/07/02 07:54:31;;;;;;;3.30;2.10;;;;;;;22.33;56.75;99366.38;5132986;27;20362;-69
2021/07/02 07:57:13;;;;;;;3.60;2.30;;;;;;;22.07;57.11;99359.97;5132318;27;20379;-69
2021/07/02 07:59:54;;;;;;;3.35;2.25;;;;;;;21.93;57.63;99367.66;5132631;27;20390;-69
2021/07/02 08:02:34;;;;;;;4.78;2.30;;;;;;;22.00;57.57;99369.81;5144624;27;1442479;-69
2021/07/02 08:05:16;;;;;;;3.75;2.15;;;;;;;21.96;57.65;99377.88;5148792;27;1440199;-69
2021/07/02 08:07:57;;;;;;;5.30;2.58;;;;;;;22.07;57.81;99370.38;5091668;27;20390;-69
2021/07/02 08:10:38;;;;;;;3.92;2.30;;;;;;;22.47;57.35;99369.91;5131917;27;20364;-69
2021/07/02 08:13:20;;;;;;;6.22;2.30;;;;;;;23.06;56.41;99368.41;5132873;27;20375;-69
2021/07/02 08:16:01;;;;;;;4.05;2.20;;;;;;;23.42;55.63;99375.94;5132154;27;20390;-69
2021/07/02 08:18:42;;;;;;;4.30;2.15;;;;;;;23.27;54.87;99382.81;5132446;27;20379;-69
2021/07/02 08:21:24;;;;;;;3.58;2.30;;;;;;;22.97;54.40;99379.31;5132404;27;20382;-69
2021/07/02 08:24:06;;;;;;;4.57;2.25;;;;;;;22.71;54.73;99372.97;5131699;27;20372;-68
2021/07/02 08:26:48;;;;;;;5.32;2.58;;;;;;;22.46;55.02;99383.84;5132435;27;20906;-69
2021/07/02 08:29:29;;;;;;;4.22;2.10;;;;;;;22.22;55.65;99386.94;5153529;27;20376;-69
2021/07/02 08:32:11;;;;;;;3.40;2.30;;;;;;;22.05;56.34;99382.59;5132274;27;20845;-70
2021/07/02 08:34:53;;;;;;;4.57;2.40;;;;;;;21.94;56.94;99390.09;5132893;27;20376;-70
2021/07/02 08:37:35;;;;;;;3.25;2.28;;;;;;;21.79;57.25;99393.44;5132112;27;20884;-70
2021/07/02 08:40:17;;;;;;;3.60;2.28;;;;;;;21.83;57.34;99387.19;5131939;27;20379;-69
2021/07/02 08:42:58;;;;;;;4.00;2.22;;;;;;;21.79;57.71;99390.84;5132684;27;20368;-70
2021/07/02 08:45:41;;;;;;;3.88;2.40;;;;;;;21.80;58.00;99388.19;5132213;27;20371;-70
2021/07/02 08:48:24;;;;;;;4.50;2.47;;;;;;;21.94;57.42;99390.09;5132480;27;20368;-70
2021/07/02 08:51:06;;;;;;;4.75;2.30;;;;;;;22.12;57.22;99389.16;5132600;27;20371;-70
2021/07/02 08:53:48;;;;;;;3.70;2.50;;;;;;;22.26;57.30;99391.03;5131883;27;20907;-70
2021/07/02 08:56:30;;;;;;;3.70;2.45;;;;;;;22.62;56.71;99387.34;5132619;27;20430;-70
2021/07/02 08:59:11;;;;;;;3.40;2.30;;;;;;;22.84;55.74;99391.38;5131876;27;20864;-70
2021/07/02 09:01:55;;;;;;;3.15;2.25;;;;;;;23.00;55.78;99390.44;5132517;27;20394;-69
2021/07/02 09:04:39;;;;;;;4.25;2.70;;;;;;;23.07;55.22;99388.31;5132795;27;20717;-69
2021/07/02 09:07:20;;;;;;;4.93;2.60;;;;;;;23.24;54.51;99389.03;5091088;28;20378;-69
2021/07/02 09:10:02;;;;;;;3.50;2.22;;;;;;;23.44;53.59;99390.53;5132122;27;20382;-69
2021/07/02 09:12:51;;;;;;;3.75;2.35;;;;;;;23.69;53.04;99389.94;5147623;27;1468516;-69
2021/07/02 09:15:33;;;;;;;4.30;2.28;;;;;;;23.84;52.88;99391.63;5132100;27;20380;-69
2021/07/02 09:18:17;;;;;;;4.38;2.30;;;;;;;23.95;52.75;99392.66;5132042;27;20717;-69
2021/07/02 09:20:58;;;;;;;5.18;2.20;;;;;;;24.21;52.37;99387.69;5132989;27;20360;-69
2021/07/02 09:23:40;;;;;;;3.58;2.05;;;;;;;24.53;51.53;99394.38;5132031;27;20380;-69
2021/07/02 09:26:39;;;;;;;2.95;2.00;;;;;;;24.62;51.27;99389.41;5132660;27;20360;-69
2021/07/02 09:29:23;;;;;;;6.38;2.22;;;;;;;24.75;51.78;99389.47;5131721;27;20392;-70
2021/07/02 09:32:04;;;;;;;3.58;2.10;;;;;;;24.94;50.71;99384.78;5144726;27;1433759;-70
2021/07/02 09:34:52;;;;;;;3.17;2.05;;;;;;;24.80;50.19;99386.59;5132007;27;20885;-69
2021/07/02 09:37:37;;;;;;;3.45;2.20;;;;;;;24.62;51.24;99388.56;5145143;27;1425985;-69
2021/07/02 09:40:22;;;;;;;3.05;2.20;;;;;;;24.57;51.50;99382.81;5144675;27;1435622;-70
2021/07/02 09:43:09;;;;;;;3.70;2.10;;;;;;;24.39;51.72;99386.56;5132113;27;20364;-69
2021/07/02 09:45:52;;;;;;;3.17;2.22;;;;;;;24.39;52.11;99391.78;5131712;27;20376;-70
2021/07/02 09:48:29;;;;;;;4.53;2.10;;;;;;;24.29;52.44;99385.44;5131963;27;20048;-69
2021/07/02 09:50:59;;;;;;;3.25;2.08;;;;;;;24.34;52.15;99388.59;5131946;28;20035;-69
2021/07/02 09:53:30;;;;;;;4.40;2.28;;;;;;;24.37;52.34;99383.22;5131785;27;20053;-69
2021/07/02 09:56:01;;;;;;;6.40;2.53;;;;;;;24.63;52.08;99380.66;5131835;27;20067;-69
2021/07/02 09:58:31;;;;;;;3.17;2.00;;;;;;;24.94;51.76;99384.78;5131956;27;20073;-70
2021/07/02 10:01:03;;;;;;;4.70;2.40;;;;;;;25.07;50.88;99380.47;5132202;27;20155;-69
2021/07/02 10:03:36;;;;;;;3.10;1.90;;;;;;;25.14;50.36;99378.28;5131792;28;20503;-70
2021/07/02 10:06:06;;;;;;;3.50;2.22;;;;;;;24.99;50.37;99369.66;5131926;27;20043;-70
2021/07/02 10:08:37;;;;;;;4.25;2.15;;;;;;;25.05;49.74;99365.84;5130267;28;20396;-69
2021/07/02 10:11:17;;;;;;;3.35;2.10;;;;;;;25.02;49.35;99379.94;5131462;27;20058;-69
2021/07/02 10:13:49;;;;;;;3.65;2.38;;;;;;;24.99;49.29;99372.28;5131365;27;20118;-70
2021/07/02 10:16:20;;;;;;;5.05;2.28;;;;;;;24.99;50.02;99361.84;5131469;28;20039;-71
2021/07/02 10:18:51;;;;;;;3.13;2.08;;;;;;;24.95;50.45;99375.19;5131318;28;20048;-69
2021/07/02 10:21:23;;;;;;;2.58;1.80;;;;;;;24.92;50.05;99383.22;5131220;27;20051;-68
2021/07/02 10:23:54;;;;;;;3.03;1.80;;;;;;;25.01;49.60;99375.63;5131067;27;20055;-69
2021/07/02 10:26:26;;;;;;;2.60;1.75;;;;;;;25.10;49.35;99375.03;5131190;28;20043;-68
2021/07/02 10:28:56;;;;;;;3.45;2.00;;;;;;;25.12;48.50;99362.69;5130902;27;20043;-70
2021/07/02 10:31:28;;;;;;;2.88;1.83;;;;;;;25.02;48.92;99356.41;5131055;27;20577;-70
2021/07/02 10:34:01;;;;;;;3.20;1.88;;;;;;;25.06;49.00;99357.88;5130941;27;20493;-70
2021/07/02 10:36:33;;;;;;;4.30;1.95;;;;;;;25.16;48.78;99358.97;5130911;27;20449;-69
2021/07/02 10:39:02;;;;;;;3.58;2.10;;;;;;;25.16;49.24;99361.59;5131185;27;20065;-69
2021/07/02 10:41:32;;;;;;;2.92;1.90;;;;;;;25.19;49.39;99353.53;5130888;27;20043;-70
2021/07/02 10:44:03;;;;;;;2.60;1.67;;;;;;;25.25;49.37;99360.97;5130837;27;20720;-70
2021/07/02 10:46:34;;;;;;;9.48;1.80;;;;;;;25.40;48.36;99345.22;5130861;27;20142;-68
2021/07/02 10:49:06;;;;;;;2.88;1.85;;;;;;;25.59;47.75;99350.91;5130688;27;20409;-70
2021/07/02 10:51:50;;;;;;;2.90;1.77;;;;;;;25.94;47.12;99347.56;5130580;27;20489;-70
2021/07/02 10:54:33;;;;;;;4.13;1.70;;;;;;;26.44;46.48;99345.88;5130645;28;20040;-70
2021/07/02 10:57:07;;;;;;;3.80;1.75;;;;;;;26.53;45.32;99353.06;5117809;27;20043;-69
2021/07/02 10:59:58;;;;;;;2.72;1.70;;;;;;;26.51;47.50;99349.72;5116939;28;20542;-70
2021/07/02 11:03:19;;;;;;;3.63;1.55;;;;;;;26.31;47.57;99351.13;5116763;28;20058;-70
2021/07/02 11:05:48;;;;;;;2.80;1.60;;;;;;;26.13;48.42;99344.53;5117016;28;20096;-70
2021/07/02 11:08:43;;;;;;;3.88;1.50;;;;;;;26.17;48.20;99353.03;5116628;28;20065;-70
2021/07/02 11:11:12;;;;;;;4.30;1.60;;;;;;;26.55;47.16;99354.63;5115369;28;20061;-70
2021/07/02 11:14:10;;;;;;;2.25;1.40;;;;;;;26.51;46.06;99347.91;5116823;28;20482;-69
2021/07/02 11:17:05;;;;;;;2.45;1.50;;;;;;;26.76;44.51;99348.81;5109809;28;20509;-70
2021/07/02 11:19:35;;;;;;;2.70;1.67;;;;;;;26.82;45.32;99356.25;5114971;28;20043;-69
2021/07/02 11:22:24;;;;;;;2.85;1.52;;;;;;;26.91;46.22;99342.47;5116539;28;20054;-69
2021/07/02 11:25:05;;;;;;;3.53;1.60;;;;;;;27.03;45.60;99344.19;5116445;27;20039;-70
2021/07/02 11:27:39;;;;;;;2.80;1.35;;;;;;;27.30;44.02;99342.16;5116637;28;20393;-70
2021/07/02 11:30:26;;;;;;;2.65;1.50;;;;;;;27.44;44.83;99346.38;5116387;28;20048;-69
2021/07/02 11:32:57;;;;;;;2.03;1.20;;;;;;;27.14;43.82;99342.44;5115940;27;20054;-69
2021/07/02 11:35:29;;;;;;;2.20;1.20;;;;;;;26.59;44.97;99337.75;5116200;28;20055;-70
2021/07/02 11:38:06;;;;;;;1.73;1.10;;;;;;;26.14;45.53;99338.38;5116184;27;20092;-69
2021/07/02 11:40:37;;;;;;;2.50;1.30;;;;;;;26.11;46.18;99337.75;5116198;28;20052;-70
2021/07/02 11:43:20;;;;;;;2.33;1.40;;;;;;;26.11;46.30;99338.59;5116092;28;20568;-70
2021/07/02 11:45:51;;;;;;;1.50;1.10;;;;;;;26.30;46.61;99333.72;5075320;28;20041;-69
2021/07/02 11:48:33;;;;;;;1.95;1.35;;;;;;;26.53;45.00;99332.97;5076051;28;20058;-70
2021/07/02 11:51:07;;;;;;;2.17;1.15;;;;;;;26.67;45.11;99326.72;5075316;28;20053;-71
2021/07/02 11:53:38;;;;;;;1.55;1.00;;;;;;;26.81;45.29;99329.19;5075236;28;20561;-71
2021/07/02 11:56:10;;;;;;;2.83;1.00;;;;;;;26.91;44.41;99329.38;5075398;28;20033;-70
2021/07/02 11:58:40;;;;;;;1.27;0.88;;;;;;;26.96;43.88;99316.75;5074998;28;20048;-70
2021/07/02 12:01:11;;;;;;;3.85;1.10;;;;;;;27.09;43.22;99314.94;5075274;28;20036;-72
2021/07/02 12:03:45;;;;;;;1.27;0.93;;;;;;;27.20;44.26;99309.72;5075044;28;20053;-71
2021/07/02 12:06:27;;;;;;;1.80;1.00;;;;;;;27.64;43.02;99309.81;5075169;28;20041;-71
2021/07/02 12:09:05;;;;;;;1.52;1.00;;;;;;;28.10;42.54;99307.13;5074116;28;20440;-70
2021/07/02 12:11:37;;;;;;;1.48;0.80;;;;;;;28.33;41.35;99308.78;5075038;28;20098;-69
2021/07/02 12:14:09;;;;;;;3.42;1.10;;;;;;;28.39;40.96;99304.81;5075342;28;20063;-70
2021/07/02 12:16:40;;;;;;;4.22;1.10;;;;;;;27.73;41.06;99301.28;5074847;28;20059;-70
2021/07/02 12:19:12;;;;;;;3.75;1.10;;;;;;;27.24;42.59;99303.28;5075010;28;20508;-70
2021/07/02 12:21:49;;;;;;;3.10;1.20;;;;;;;26.99;43.47;99295.59;5074706;28;20044;-69
2021/07/02 12:24:21;;;;;;;1.70;1.20;;;;;;;26.78;43.79;99297.16;5074573;28;20114;-70
2021/07/02 12:26:52;;;;;;;2.88;1.10;;;;;;;26.47;44.63;99307.19;5074419;28;20094;-70
2021/07/02 12:29:22;;;;;;;2.90;1.00;;;;;;;26.22;45.22;99311.69;5074426;28;20448;-70
2021/07/02 12:31:51;;;;;;;;;;;;;;;25.97;45.90;99309.91;5074640;28;20143;-70
2021/07/02 12:34:22;;;;;;;2.35;1.10;;;;;;;25.65;46.26;99304.28;5074476;28;19966;-70